sensor_id;sensor_type;location;lat;lon;timestamp;P1;durP1;ratioP1;P2;durP2;ratioP2
70576;SDS011;58138;43.138;24.702;2023-01-29T00:01:46;16.80;;;11.68;;
70576;SDS011;58138;43.138;24.702;2023-01-29T00:04:11;17.35;;;12.80;;
70576;SDS011;58138;43.138;24.702;2023-01-29T00:06:37;18.92;;;13.45;;
70576;SDS011;58138;43.138;24.702;2023-01-29T00:09:03;16.83;;;11.50;;
70576;SDS011;58138;43.138;24.702;2023-01-29T00:11:28;6.32;;;3.63;;
70576;SDS011;58138;43.138;24.702;2023-01-29T00:13:55;13.85;;;10.30;;
70576;SDS011;58138;43.138;24.702;2023-01-29T00:16:20;13.88;;;9.50;;
70576;SDS011;58138;43.138;24.702;2023-01-29T00:18:46;15.32;;;11.00;;
70576;SDS011;58138;43.138;24.702;2023-01-29T00:21:12;15.05;;;10.88;;
70576;SDS011;58138;43.138;24.702;2023-01-29T00:23:39;13.77;;;10.02;;
70576;SDS011;58138;43.138;24.702;2023-01-29T00:26:05;13.13;;;9.10;;
70576;SDS011;58138;43.138;24.702;2023-01-29T00:28:30;16.80;;;11.25;;
70576;SDS011;58138;43.138;24.702;2023-01-29T00:30:56;12.88;;;9.98;;
70576;SDS011;58138;43.138;24.702;2023-01-29T00:33:22;16.02;;;11.27;;
70576;SDS011;58138;43.138;24.702;2023-01-29T00:35:47;15.20;;;11.40;;
70576;SDS011;58138;43.138;24.702;2023-01-29T00:38:13;16.15;;;11.52;;
70576;SDS011;58138;43.138;24.702;2023-01-29T00:40:38;16.00;;;11.85;;
70576;SDS011;58138;43.138;24.702;2023-01-29T00:43:23;14.43;;;10.43;;
70576;SDS011;58138;43.138;24.702;2023-01-29T00:46:07;12.93;;;9.48;;
70576;SDS011;58138;43.138;24.702;2023-01-29T00:48:33;13.20;;;10.50;;
70576;SDS011;58138;43.138;24.702;2023-01-29T00:50:59;12.88;;;9.65;;
70576;SDS011;58138;43.138;24.702;2023-01-29T00:53:25;13.65;;;9.52;;
70576;SDS011;58138;43.138;24.702;2023-01-29T00:55:51;12.25;;;9.63;;
70576;SDS011;58138;43.138;24.702;2023-01-29T00:58:16;17.45;;;10.95;;
70576;SDS011;58138;43.138;24.702;2023-01-29T01:00:49;14.48;;;10.25;;
70576;SDS011;58138;43.138;24.702;2023-01-29T01:03:15;14.27;;;9.68;;
70576;SDS011;58138;43.138;24.702;2023-01-29T01:05:41;13.55;;;9.68;;
70576;SDS011;58138;43.138;24.702;2023-01-29T01:08:07;14.48;;;9.85;;
70576;SDS011;58138;43.138;24.702;2023-01-29T01:10:57;13.85;;;10.05;;
70576;SDS011;58138;43.138;24.702;2023-01-29T01:13:23;13.70;;;10.07;;
70576;SDS011;58138;43.138;24.702;2023-01-29T01:15:49;12.80;;;8.70;;
70576;SDS011;58138;43.138;24.702;2023-01-29T01:18:14;12.23;;;9.10;;
70576;SDS011;58138;43.138;24.702;2023-01-29T01:20:40;13.57;;;9.75;;
70576;SDS011;58138;43.138;24.702;2023-01-29T01:23:06;13.13;;;8.95;;
70576;SDS011;58138;43.138;24.702;2023-01-29T01:25:31;11.82;;;8.57;;
70576;SDS011;58138;43.138;24.702;2023-01-29T01:27:57;12.93;;;9.63;;
70576;SDS011;58138;43.138;24.702;2023-01-29T01:30:23;11.88;;;8.65;;
70576;SDS011;58138;43.138;24.702;2023-01-29T01:32:49;12.02;;;8.68;;
70576;SDS011;58138;43.138;24.702;2023-01-29T01:35:15;11.60;;;8.35;;
70576;SDS011;58138;43.138;24.702;2023-01-29T01:37:41;11.23;;;8.63;;
70576;SDS011;58138;43.138;24.702;2023-01-29T01:40:09;10.48;;;8.38;;
70576;SDS011;58138;43.138;24.702;2023-01-29T01:42:42;11.85;;;8.77;;
70576;SDS011;58138;43.138;24.702;2023-01-29T01:47:50;11.90;;;7.88;;
70576;SDS011;58138;43.138;24.702;2023-01-29T01:52:58;9.25;;;7.22;;
70576;SDS011;58138;43.138;24.702;2023-01-29T01:55:27;13.35;;;9.05;;
70576;SDS011;58138;43.138;24.702;2023-01-29T01:57:56;10.82;;;7.55;;
70576;SDS011;58138;43.138;24.702;2023-01-29T02:00:26;9.15;;;7.20;;
70576;SDS011;58138;43.138;24.702;2023-01-29T02:02:51;4.55;;;3.58;;
70576;SDS011;58138;43.138;24.702;2023-01-29T02:05:36;9.38;;;6.60;;
70576;SDS011;58138;43.138;24.702;2023-01-29T02:08:35;9.35;;;6.85;;
70576;SDS011;58138;43.138;24.702;2023-01-29T02:11:24;12.75;;;8.85;;
70576;SDS011;58138;43.138;24.702;2023-01-29T02:13:50;9.23;;;5.13;;
70576;SDS011;58138;43.138;24.702;2023-01-29T02:16:18;7.28;;;5.13;;
70576;SDS011;58138;43.138;24.702;2023-01-29T02:18:47;9.15;;;6.80;;
70576;SDS011;58138;43.138;24.702;2023-01-29T02:21:20;9.73;;;7.30;;
70576;SDS011;58138;43.138;24.702;2023-01-29T02:29:32;11.50;;;7.80;;
70576;SDS011;58138;43.138;24.702;2023-01-29T02:37:32;8.48;;;6.15;;
70576;SDS011;58138;43.138;24.702;2023-01-29T02:42:46;9.85;;;6.88;;
70576;SDS011;58138;43.138;24.702;2023-01-29T02:45:27;9.25;;;6.80;;
70576;SDS011;58138;43.138;24.702;2023-01-29T02:47:58;9.80;;;7.40;;
70576;SDS011;58138;43.138;24.702;2023-01-29T02:52:58;10.15;;;7.68;;
70576;SDS011;58138;43.138;24.702;2023-01-29T02:55:29;7.68;;;6.18;;
70576;SDS011;58138;43.138;24.702;2023-01-29T02:58:16;10.45;;;6.40;;
70576;SDS011;58138;43.138;24.702;2023-01-29T03:00:46;12.10;;;8.20;;
70576;SDS011;58138;43.138;24.702;2023-01-29T03:03:16;10.45;;;7.35;;
70576;SDS011;58138;43.138;24.702;2023-01-29T03:06:19;11.05;;;6.93;;
70576;SDS011;58138;43.138;24.702;2023-01-29T03:09:08;9.80;;;6.93;;
70576;SDS011;58138;43.138;24.702;2023-01-29T03:11:34;9.07;;;6.60;;
70576;SDS011;58138;43.138;24.702;2023-01-29T03:14:08;9.00;;;7.03;;
70576;SDS011;58138;43.138;24.702;2023-01-29T03:16:49;8.57;;;6.60;;
70576;SDS011;58138;43.138;24.702;2023-01-29T03:21:50;8.63;;;7.03;;
70576;SDS011;58138;43.138;24.702;2023-01-29T03:27:29;9.60;;;7.50;;
70576;SDS011;58138;43.138;24.702;2023-01-29T03:30:16;6.72;;;4.97;;
70576;SDS011;58138;43.138;24.702;2023-01-29T03:33:02;9.18;;;7.90;;
70576;SDS011;58138;43.138;24.702;2023-01-29T03:35:31;11.52;;;8.52;;
70576;SDS011;58138;43.138;24.702;2023-01-29T03:38:07;8.25;;;6.63;;
70576;SDS011;58138;43.138;24.702;2023-01-29T03:40:48;10.15;;;7.80;;
70576;SDS011;58138;43.138;24.702;2023-01-29T03:43:19;9.07;;;7.10;;
70576;SDS011;58138;43.138;24.702;2023-01-29T03:45:57;8.63;;;6.22;;
70576;SDS011;58138;43.138;24.702;2023-01-29T03:57:28;9.98;;;7.72;;
70576;SDS011;58138;43.138;24.702;2023-01-29T04:00:07;9.00;;;7.00;;
70576;SDS011;58138;43.138;24.702;2023-01-29T04:02:55;9.90;;;7.10;;
70576;SDS011;58138;43.138;24.702;2023-01-29T04:05:41;10.52;;;7.65;;
70576;SDS011;58138;43.138;24.702;2023-01-29T04:08:15;13.43;;;9.05;;
70576;SDS011;58138;43.138;24.702;2023-01-29T04:10:44;27.13;;;15.27;;
70576;SDS011;58138;43.138;24.702;2023-01-29T04:13:11;12.88;;;9.27;;
70576;SDS011;58138;43.138;24.702;2023-01-29T04:15:43;20.17;;;13.55;;
70576;SDS011;58138;43.138;24.702;2023-01-29T04:18:11;21.83;;;13.35;;
70576;SDS011;58138;43.138;24.702;2023-01-29T04:20:37;12.60;;;8.68;;
70576;SDS011;58138;43.138;24.702;2023-01-29T04:23:04;12.95;;;9.07;;
70576;SDS011;58138;43.138;24.702;2023-01-29T04:25:33;14.70;;;11.63;;
70576;SDS011;58138;43.138;24.702;2023-01-29T04:30:32;6.28;;;4.43;;
70576;SDS011;58138;43.138;24.702;2023-01-29T04:35:58;12.80;;;7.25;;
70576;SDS011;58138;43.138;24.702;2023-01-29T04:41:39;16.02;;;12.30;;
70576;SDS011;58138;43.138;24.702;2023-01-29T04:44:14;14.73;;;11.00;;
70576;SDS011;58138;43.138;24.702;2023-01-29T04:57:11;16.55;;;10.82;;
70576;SDS011;58138;43.138;24.702;2023-01-29T04:59:42;16.63;;;12.00;;
70576;SDS011;58138;43.138;24.702;2023-01-29T05:02:11;19.58;;;12.98;;
70576;SDS011;58138;43.138;24.702;2023-01-29T05:04:37;16.20;;;12.48;;
70576;SDS011;58138;43.138;24.702;2023-01-29T05:07:05;20.33;;;15.02;;
70576;SDS011;58138;43.138;24.702;2023-01-29T05:09:33;20.13;;;14.07;;
70576;SDS011;58138;43.138;24.702;2023-01-29T05:11:59;17.85;;;11.82;;
70576;SDS011;58138;43.138;24.702;2023-01-29T05:14:25;18.98;;;12.43;;
70576;SDS011;58138;43.138;24.702;2023-01-29T05:16:51;19.08;;;13.75;;
70576;SDS011;58138;43.138;24.702;2023-01-29T05:19:17;19.50;;;13.55;;
70576;SDS011;58138;43.138;24.702;2023-01-29T05:21:43;17.95;;;12.73;;
70576;SDS011;58138;43.138;24.702;2023-01-29T05:24:18;19.48;;;13.70;;
70576;SDS011;58138;43.138;24.702;2023-01-29T05:26:48;14.40;;;10.60;;
70576;SDS011;58138;43.138;24.702;2023-01-29T05:29:33;20.73;;;13.55;;
70576;SDS011;58138;43.138;24.702;2023-01-29T05:31:58;18.45;;;13.75;;
70576;SDS011;58138;43.138;24.702;2023-01-29T05:34:24;21.38;;;13.05;;
70576;SDS011;58138;43.138;24.702;2023-01-29T05:36:49;19.75;;;16.00;;
70576;SDS011;58138;43.138;24.702;2023-01-29T05:39:15;19.27;;;12.32;;
70576;SDS011;58138;43.138;24.702;2023-01-29T05:41:41;24.52;;;18.00;;
70576;SDS011;58138;43.138;24.702;2023-01-29T05:44:06;21.23;;;14.95;;
70576;SDS011;58138;43.138;24.702;2023-01-29T05:46:33;24.13;;;16.02;;
70576;SDS011;58138;43.138;24.702;2023-01-29T05:48:59;24.55;;;15.73;;
70576;SDS011;58138;43.138;24.702;2023-01-29T05:51:24;24.90;;;16.27;;
70576;SDS011;58138;43.138;24.702;2023-01-29T05:53:49;110.32;;;69.18;;
70576;SDS011;58138;43.138;24.702;2023-01-29T05:56:15;24.75;;;16.83;;
70576;SDS011;58138;43.138;24.702;2023-01-29T05:58:40;22.70;;;15.40;;
70576;SDS011;58138;43.138;24.702;2023-01-29T06:01:10;22.15;;;15.45;;
70576;SDS011;58138;43.138;24.702;2023-01-29T06:03:40;24.90;;;17.58;;
70576;SDS011;58138;43.138;24.702;2023-01-29T06:06:06;21.63;;;15.63;;
70576;SDS011;58138;43.138;24.702;2023-01-29T06:08:31;29.33;;;19.10;;
70576;SDS011;58138;43.138;24.702;2023-01-29T06:10:57;36.22;;;22.20;;
70576;SDS011;58138;43.138;24.702;2023-01-29T06:13:22;23.88;;;16.02;;
70576;SDS011;58138;43.138;24.702;2023-01-29T06:15:48;23.45;;;16.88;;
70576;SDS011;58138;43.138;24.702;2023-01-29T06:18:13;26.83;;;17.63;;
70576;SDS011;58138;43.138;24.702;2023-01-29T06:20:39;22.20;;;14.52;;
70576;SDS011;58138;43.138;24.702;2023-01-29T06:23:04;26.98;;;17.77;;
70576;SDS011;58138;43.138;24.702;2023-01-29T06:25:30;27.33;;;17.88;;
70576;SDS011;58138;43.138;24.702;2023-01-29T06:27:55;25.58;;;17.63;;
70576;SDS011;58138;43.138;24.702;2023-01-29T06:30:21;19.48;;;13.60;;
70576;SDS011;58138;43.138;24.702;2023-01-29T06:32:46;50.35;;;29.48;;
70576;SDS011;58138;43.138;24.702;2023-01-29T06:35:12;21.55;;;15.00;;
70576;SDS011;58138;43.138;24.702;2023-01-29T06:37:37;23.35;;;15.23;;
70576;SDS011;58138;43.138;24.702;2023-01-29T06:40:03;22.50;;;15.38;;
70576;SDS011;58138;43.138;24.702;2023-01-29T06:42:33;21.58;;;15.82;;
70576;SDS011;58138;43.138;24.702;2023-01-29T06:44:59;20.77;;;14.65;;
70576;SDS011;58138;43.138;24.702;2023-01-29T06:47:25;18.33;;;13.48;;
70576;SDS011;58138;43.138;24.702;2023-01-29T06:49:51;8.65;;;6.30;;
70576;SDS011;58138;43.138;24.702;2023-01-29T06:52:16;20.02;;;13.35;;
70576;SDS011;58138;43.138;24.702;2023-01-29T06:54:42;15.43;;;10.57;;
70576;SDS011;58138;43.138;24.702;2023-01-29T06:57:07;21.35;;;13.40;;
70576;SDS011;58138;43.138;24.702;2023-01-29T06:59:33;20.60;;;13.38;;
70576;SDS011;58138;43.138;24.702;2023-01-29T07:01:58;22.05;;;14.38;;
70576;SDS011;58138;43.138;24.702;2023-01-29T07:04:24;24.77;;;15.85;;
70576;SDS011;58138;43.138;24.702;2023-01-29T07:06:49;23.25;;;15.80;;
70576;SDS011;58138;43.138;24.702;2023-01-29T07:09:14;21.98;;;15.85;;
70576;SDS011;58138;43.138;24.702;2023-01-29T07:11:40;27.67;;;16.48;;
70576;SDS011;58138;43.138;24.702;2023-01-29T07:14:05;24.85;;;17.20;;
70576;SDS011;58138;43.138;24.702;2023-01-29T07:16:31;30.83;;;20.33;;
70576;SDS011;58138;43.138;24.702;2023-01-29T07:18:57;27.88;;;18.60;;
70576;SDS011;58138;43.138;24.702;2023-01-29T07:21:22;28.08;;;19.25;;
70576;SDS011;58138;43.138;24.702;2023-01-29T07:23:51;23.23;;;15.35;;
70576;SDS011;58138;43.138;24.702;2023-01-29T07:26:16;22.40;;;15.65;;
70576;SDS011;58138;43.138;24.702;2023-01-29T07:28:42;39.15;;;24.08;;
70576;SDS011;58138;43.138;24.702;2023-01-29T07:31:07;49.17;;;28.55;;
70576;SDS011;58138;43.138;24.702;2023-01-29T07:33:36;34.40;;;23.65;;
70576;SDS011;58138;43.138;24.702;2023-01-29T07:36:05;27.73;;;19.27;;
70576;SDS011;58138;43.138;24.702;2023-01-29T07:38:31;28.38;;;19.83;;
70576;SDS011;58138;43.138;24.702;2023-01-29T07:40:57;42.30;;;27.83;;
70576;SDS011;58138;43.138;24.702;2023-01-29T07:43:22;37.22;;;24.83;;
70576;SDS011;58138;43.138;24.702;2023-01-29T07:45:48;25.35;;;18.40;;
70576;SDS011;58138;43.138;24.702;2023-01-29T07:48:14;19.67;;;13.48;;
70576;SDS011;58138;43.138;24.702;2023-01-29T07:50:39;32.08;;;20.80;;
70576;SDS011;58138;43.138;24.702;2023-01-29T07:53:05;29.45;;;19.75;;
70576;SDS011;58138;43.138;24.702;2023-01-29T07:55:31;34.22;;;26.60;;
70576;SDS011;58138;43.138;24.702;2023-01-29T07:57:58;29.05;;;18.73;;
70576;SDS011;58138;43.138;24.702;2023-01-29T08:00:24;25.92;;;18.88;;
70576;SDS011;58138;43.138;24.702;2023-01-29T08:02:50;29.98;;;20.15;;
70576;SDS011;58138;43.138;24.702;2023-01-29T08:05:16;17.98;;;11.50;;
70576;SDS011;58138;43.138;24.702;2023-01-29T08:07:41;30.25;;;20.27;;
70576;SDS011;58138;43.138;24.702;2023-01-29T08:10:07;25.50;;;18.33;;
70576;SDS011;58138;43.138;24.702;2023-01-29T08:12:33;24.95;;;15.85;;
70576;SDS011;58138;43.138;24.702;2023-01-29T08:14:58;53.28;;;30.90;;
70576;SDS011;58138;43.138;24.702;2023-01-29T08:17:23;32.45;;;21.45;;
70576;SDS011;58138;43.138;24.702;2023-01-29T08:19:49;116.30;;;55.88;;
70576;SDS011;58138;43.138;24.702;2023-01-29T08:22:14;25.85;;;18.27;;
70576;SDS011;58138;43.138;24.702;2023-01-29T08:24:40;22.80;;;15.15;;
70576;SDS011;58138;43.138;24.702;2023-01-29T08:27:06;27.67;;;18.58;;
70576;SDS011;58138;43.138;24.702;2023-01-29T08:29:32;26.73;;;17.70;;
70576;SDS011;58138;43.138;24.702;2023-01-29T08:31:57;25.33;;;18.83;;
70576;SDS011;58138;43.138;24.702;2023-01-29T08:34:23;31.25;;;22.35;;
70576;SDS011;58138;43.138;24.702;2023-01-29T08:36:48;28.67;;;19.92;;
70576;SDS011;58138;43.138;24.702;2023-01-29T08:39:14;24.05;;;17.90;;
70576;SDS011;58138;43.138;24.702;2023-01-29T08:41:39;32.17;;;22.13;;
70576;SDS011;58138;43.138;24.702;2023-01-29T08:44:05;40.63;;;23.65;;
70576;SDS011;58138;43.138;24.702;2023-01-29T08:46:31;33.13;;;19.58;;
70576;SDS011;58138;43.138;24.702;2023-01-29T08:48:56;39.40;;;24.50;;
70576;SDS011;58138;43.138;24.702;2023-01-29T08:51:23;17.55;;;12.40;;
70576;SDS011;58138;43.138;24.702;2023-01-29T08:53:49;21.80;;;16.92;;
70576;SDS011;58138;43.138;24.702;2023-01-29T08:56:14;24.50;;;15.95;;
70576;SDS011;58138;43.138;24.702;2023-01-29T08:58:40;26.05;;;17.88;;
70576;SDS011;58138;43.138;24.702;2023-01-29T09:01:07;32.60;;;23.48;;
70576;SDS011;58138;43.138;24.702;2023-01-29T09:03:33;23.50;;;18.25;;
70576;SDS011;58138;43.138;24.702;2023-01-29T09:05:58;21.67;;;16.33;;
70576;SDS011;58138;43.138;24.702;2023-01-29T09:08:23;19.52;;;15.30;;
70576;SDS011;58138;43.138;24.702;2023-01-29T09:10:49;20.10;;;15.77;;
70576;SDS011;58138;43.138;24.702;2023-01-29T09:13:14;22.00;;;17.25;;
70576;SDS011;58138;43.138;24.702;2023-01-29T09:15:40;25.45;;;19.30;;
70576;SDS011;58138;43.138;24.702;2023-01-29T09:18:05;11.63;;;8.73;;
70576;SDS011;58138;43.138;24.702;2023-01-29T09:20:31;24.25;;;14.20;;
70576;SDS011;58138;43.138;24.702;2023-01-29T09:22:57;24.23;;;16.40;;
70576;SDS011;58138;43.138;24.702;2023-01-29T09:25:23;22.95;;;16.55;;
70576;SDS011;58138;43.138;24.702;2023-01-29T09:27:49;30.95;;;21.90;;
70576;SDS011;58138;43.138;24.702;2023-01-29T09:30:14;27.95;;;19.73;;
70576;SDS011;58138;43.138;24.702;2023-01-29T09:32:40;21.45;;;12.73;;
70576;SDS011;58138;43.138;24.702;2023-01-29T09:35:06;31.92;;;20.98;;
70576;SDS011;58138;43.138;24.702;2023-01-29T09:37:31;28.75;;;19.70;;
70576;SDS011;58138;43.138;24.702;2023-01-29T09:39:57;16.73;;;11.80;;
70576;SDS011;58138;43.138;24.702;2023-01-29T09:42:23;28.60;;;18.05;;
70576;SDS011;58138;43.138;24.702;2023-01-29T09:47:32;19.05;;;12.25;;
70576;SDS011;58138;43.138;24.702;2023-01-29T09:52:39;15.90;;;10.68;;
70576;SDS011;58138;43.138;24.702;2023-01-29T10:00:33;16.88;;;11.55;;
70576;SDS011;58138;43.138;24.702;2023-01-29T10:05:46;27.10;;;19.40;;
70576;SDS011;58138;43.138;24.702;2023-01-29T10:25:10;28.73;;;21.47;;
70576;SDS011;58138;43.138;24.702;2023-01-29T10:27:39;30.02;;;22.13;;
70576;SDS011;58138;43.138;24.702;2023-01-29T10:30:06;19.63;;;14.93;;
70576;SDS011;58138;43.138;24.702;2023-01-29T10:32:41;29.27;;;21.73;;
70576;SDS011;58138;43.138;24.702;2023-01-29T10:35:19;28.55;;;20.77;;
70576;SDS011;58138;43.138;24.702;2023-01-29T10:37:47;37.10;;;27.80;;
70576;SDS011;58138;43.138;24.702;2023-01-29T10:42:54;41.47;;;28.63;;
70576;SDS011;58138;43.138;24.702;2023-01-29T10:45:29;41.80;;;28.63;;
70576;SDS011;58138;43.138;24.702;2023-01-29T10:48:06;23.52;;;17.98;;
70576;SDS011;58138;43.138;24.702;2023-01-29T10:50:46;25.30;;;18.40;;
70576;SDS011;58138;43.138;24.702;2023-01-29T10:58:49;30.23;;;21.05;;
70576;SDS011;58138;43.138;24.702;2023-01-29T11:01:16;31.52;;;19.83;;
70576;SDS011;58138;43.138;24.702;2023-01-29T11:03:41;18.77;;;10.13;;
70576;SDS011;58138;43.138;24.702;2023-01-29T11:11:45;25.50;;;16.50;;
70576;SDS011;58138;43.138;24.702;2023-01-29T11:16:46;22.45;;;13.32;;
70576;SDS011;58138;43.138;24.702;2023-01-29T11:19:13;37.20;;;24.42;;
70576;SDS011;58138;43.138;24.702;2023-01-29T11:21:59;19.13;;;9.63;;
70576;SDS011;58138;43.138;24.702;2023-01-29T11:24:25;27.80;;;18.40;;
70576;SDS011;58138;43.138;24.702;2023-01-29T11:26:51;22.98;;;14.85;;
70576;SDS011;58138;43.138;24.702;2023-01-29T11:29:37;24.17;;;15.05;;
70576;SDS011;58138;43.138;24.702;2023-01-29T11:37:37;26.23;;;17.08;;
70576;SDS011;58138;43.138;24.702;2023-01-29T11:40:38;35.22;;;21.33;;
70576;SDS011;58138;43.138;24.702;2023-01-29T11:43:11;37.28;;;24.02;;
70576;SDS011;58138;43.138;24.702;2023-01-29T11:45:44;27.38;;;16.70;;
70576;SDS011;58138;43.138;24.702;2023-01-29T11:48:17;53.35;;;32.10;;
70576;SDS011;58138;43.138;24.702;2023-01-29T11:50:56;12.90;;;7.80;;
70576;SDS011;58138;43.138;24.702;2023-01-29T11:53:43;27.13;;;17.60;;
70576;SDS011;58138;43.138;24.702;2023-01-29T11:56:21;30.98;;;19.15;;
70576;SDS011;58138;43.138;24.702;2023-01-29T12:04:43;10.90;;;6.47;;
70576;SDS011;58138;43.138;24.702;2023-01-29T12:07:10;31.90;;;20.75;;
70576;SDS011;58138;43.138;24.702;2023-01-29T12:09:40;32.90;;;21.25;;
70576;SDS011;58138;43.138;24.702;2023-01-29T12:12:16;35.08;;;24.88;;
70576;SDS011;58138;43.138;24.702;2023-01-29T12:14:42;21.77;;;15.13;;
70576;SDS011;58138;43.138;24.702;2023-01-29T12:17:12;32.33;;;21.15;;
70576;SDS011;58138;43.138;24.702;2023-01-29T12:20:19;28.77;;;19.90;;
70576;SDS011;58138;43.138;24.702;2023-01-29T12:25:30;40.95;;;26.83;;
70576;SDS011;58138;43.138;24.702;2023-01-29T12:30:47;26.77;;;16.67;;
70576;SDS011;58138;43.138;24.702;2023-01-29T12:35:56;26.02;;;15.73;;
70576;SDS011;58138;43.138;24.702;2023-01-29T12:38:29;35.30;;;21.52;;
70576;SDS011;58138;43.138;24.702;2023-01-29T12:40:59;37.60;;;24.13;;
70576;SDS011;58138;43.138;24.702;2023-01-29T12:46:01;23.87;;;14.17;;
70576;SDS011;58138;43.138;24.702;2023-01-29T12:48:31;36.95;;;23.45;;
70576;SDS011;58138;43.138;24.702;2023-01-29T12:51:06;30.88;;;19.67;;
70576;SDS011;58138;43.138;24.702;2023-01-29T12:53:53;30.80;;;19.70;;
70576;SDS011;58138;43.138;24.702;2023-01-29T12:56:43;32.97;;;20.30;;
70576;SDS011;58138;43.138;24.702;2023-01-29T12:59:19;32.38;;;20.23;;
70576;SDS011;58138;43.138;24.702;2023-01-29T13:02:23;25.42;;;16.90;;
70576;SDS011;58138;43.138;24.702;2023-01-29T13:04:58;36.47;;;22.88;;
70576;SDS011;58138;43.138;24.702;2023-01-29T13:07:44;35.40;;;22.00;;
70576;SDS011;58138;43.138;24.702;2023-01-29T13:10:15;37.35;;;24.58;;
70576;SDS011;58138;43.138;24.702;2023-01-29T13:12:47;56.92;;;30.65;;
70576;SDS011;58138;43.138;24.702;2023-01-29T13:15:35;34.70;;;20.52;;
70576;SDS011;58138;43.138;24.702;2023-01-29T13:18:10;37.47;;;24.10;;
70576;SDS011;58138;43.138;24.702;2023-01-29T13:23:42;33.55;;;21.67;;
70576;SDS011;58138;43.138;24.702;2023-01-29T13:26:07;33.60;;;21.30;;
70576;SDS011;58138;43.138;24.702;2023-01-29T13:28:33;34.30;;;21.67;;
70576;SDS011;58138;43.138;24.702;2023-01-29T13:31:37;28.73;;;17.85;;
70576;SDS011;58138;43.138;24.702;2023-01-29T13:36:44;43.40;;;27.20;;
70576;SDS011;58138;43.138;24.702;2023-01-29T13:39:30;30.48;;;17.95;;
70576;SDS011;58138;43.138;24.702;2023-01-29T13:41:58;51.38;;;33.35;;
70576;SDS011;58138;43.138;24.702;2023-01-29T13:46:55;34.08;;;21.73;;
70576;SDS011;58138;43.138;24.702;2023-01-29T13:49:38;41.40;;;24.70;;
70576;SDS011;58138;43.138;24.702;2023-01-29T13:54:49;45.30;;;24.65;;
70576;SDS011;58138;43.138;24.702;2023-01-29T13:59:57;57.28;;;28.98;;
70576;SDS011;58138;43.138;24.702;2023-01-29T14:02:24;39.30;;;24.40;;
70576;SDS011;58138;43.138;24.702;2023-01-29T14:04:54;38.95;;;24.95;;
70576;SDS011;58138;43.138;24.702;2023-01-29T14:10:39;29.02;;;18.25;;
70576;SDS011;58138;43.138;24.702;2023-01-29T14:18:21;46.35;;;29.67;;
70576;SDS011;58138;43.138;24.702;2023-01-29T14:23:21;44.72;;;28.45;;
70576;SDS011;58138;43.138;24.702;2023-01-29T14:25:57;39.67;;;26.17;;
70576;SDS011;58138;43.138;24.702;2023-01-29T14:28:26;46.25;;;29.83;;
70576;SDS011;58138;43.138;24.702;2023-01-29T14:30:53;48.25;;;31.25;;
70576;SDS011;58138;43.138;24.702;2023-01-29T14:33:26;37.53;;;23.73;;
70576;SDS011;58138;43.138;24.702;2023-01-29T14:35:55;46.55;;;29.30;;
70576;SDS011;58138;43.138;24.702;2023-01-29T14:38:22;50.35;;;33.15;;
70576;SDS011;58138;43.138;24.702;2023-01-29T14:40:50;49.67;;;32.45;;
70576;SDS011;58138;43.138;24.702;2023-01-29T14:43:27;54.30;;;34.65;;
70576;SDS011;58138;43.138;24.702;2023-01-29T14:45:53;49.70;;;30.70;;
70576;SDS011;58138;43.138;24.702;2023-01-29T14:48:37;38.67;;;26.25;;
70576;SDS011;58138;43.138;24.702;2023-01-29T14:51:07;41.33;;;28.58;;
70576;SDS011;58138;43.138;24.702;2023-01-29T14:53:49;42.63;;;29.42;;
70576;SDS011;58138;43.138;24.702;2023-01-29T14:57:02;49.22;;;32.97;;
70576;SDS011;58138;43.138;24.702;2023-01-29T14:59:33;37.78;;;26.48;;
70576;SDS011;58138;43.138;24.702;2023-01-29T15:04:51;43.38;;;29.33;;
70576;SDS011;58138;43.138;24.702;2023-01-29T15:07:32;50.78;;;34.50;;
70576;SDS011;58138;43.138;24.702;2023-01-29T15:13:07;38.45;;;24.60;;
70576;SDS011;58138;43.138;24.702;2023-01-29T15:15:41;42.83;;;27.92;;
70576;SDS011;58138;43.138;24.702;2023-01-29T15:18:16;45.88;;;30.13;;
70576;SDS011;58138;43.138;24.702;2023-01-29T15:20:44;41.00;;;28.23;;
70576;SDS011;58138;43.138;24.702;2023-01-29T15:23:23;55.88;;;38.40;;
70576;SDS011;58138;43.138;24.702;2023-01-29T15:25:50;52.75;;;33.92;;
70576;SDS011;58138;43.138;24.702;2023-01-29T15:28:17;60.90;;;37.08;;
70576;SDS011;58138;43.138;24.702;2023-01-29T15:30:42;217.63;;;112.85;;
70576;SDS011;58138;43.138;24.702;2023-01-29T15:33:09;74.97;;;47.50;;
70576;SDS011;58138;43.138;24.702;2023-01-29T15:35:39;55.65;;;36.50;;
70576;SDS011;58138;43.138;24.702;2023-01-29T15:38:13;62.22;;;41.63;;
70576;SDS011;58138;43.138;24.702;2023-01-29T15:43:23;59.70;;;39.63;;
70576;SDS011;58138;43.138;24.702;2023-01-29T15:45:56;68.90;;;45.90;;
70576;SDS011;58138;43.138;24.702;2023-01-29T15:48:29;82.43;;;48.83;;
70576;SDS011;58138;43.138;24.702;2023-01-29T15:50:57;74.78;;;45.90;;
70576;SDS011;58138;43.138;24.702;2023-01-29T15:53:26;65.82;;;40.70;;
70576;SDS011;58138;43.138;24.702;2023-01-29T15:55:54;75.22;;;44.30;;
70576;SDS011;58138;43.138;24.702;2023-01-29T15:58:22;54.65;;;30.45;;
70576;SDS011;58138;43.138;24.702;2023-01-29T16:00:52;88.65;;;49.88;;
70576;SDS011;58138;43.138;24.702;2023-01-29T16:03:20;34.33;;;21.33;;
70576;SDS011;58138;43.138;24.702;2023-01-29T16:05:47;64.93;;;41.70;;
70576;SDS011;58138;43.138;24.702;2023-01-29T16:08:13;51.85;;;34.58;;
70576;SDS011;58138;43.138;24.702;2023-01-29T16:10:39;66.70;;;38.70;;
70576;SDS011;58138;43.138;24.702;2023-01-29T16:13:18;49.20;;;31.77;;
70576;SDS011;58138;43.138;24.702;2023-01-29T16:20:55;23.35;;;14.93;;
70576;SDS011;58138;43.138;24.702;2023-01-29T16:23:23;24.00;;;14.80;;
70576;SDS011;58138;43.138;24.702;2023-01-29T16:25:51;22.75;;;15.05;;
70576;SDS011;58138;43.138;24.702;2023-01-29T16:28:17;28.90;;;19.15;;
70576;SDS011;58138;43.138;24.702;2023-01-29T16:30:43;39.53;;;26.40;;
70576;SDS011;58138;43.138;24.702;2023-01-29T16:33:12;35.80;;;24.23;;
70576;SDS011;58138;43.138;24.702;2023-01-29T16:35:41;23.17;;;12.52;;
70576;SDS011;58138;43.138;24.702;2023-01-29T16:38:16;30.23;;;17.88;;
70576;SDS011;58138;43.138;24.702;2023-01-29T16:41:03;26.73;;;17.95;;
70576;SDS011;58138;43.138;24.702;2023-01-29T16:47:13;18.17;;;11.73;;
70576;SDS011;58138;43.138;24.702;2023-01-29T16:53:03;33.40;;;21.52;;
70576;SDS011;58138;43.138;24.702;2023-01-29T16:55:43;32.30;;;20.33;;
70576;SDS011;58138;43.138;24.702;2023-01-29T16:58:12;39.83;;;24.88;;
70576;SDS011;58138;43.138;24.702;2023-01-29T17:00:47;27.05;;;17.05;;
70576;SDS011;58138;43.138;24.702;2023-01-29T17:03:14;42.05;;;26.55;;
70576;SDS011;58138;43.138;24.702;2023-01-29T17:05:41;41.40;;;28.80;;
70576;SDS011;58138;43.138;24.702;2023-01-29T17:08:12;36.47;;;24.80;;
70576;SDS011;58138;43.138;24.702;2023-01-29T17:10:46;39.42;;;26.58;;
70576;SDS011;58138;43.138;24.702;2023-01-29T17:13:16;45.97;;;28.60;;
70576;SDS011;58138;43.138;24.702;2023-01-29T17:15:47;43.38;;;27.98;;
70576;SDS011;58138;43.138;24.702;2023-01-29T17:18:14;40.20;;;27.40;;
70576;SDS011;58138;43.138;24.702;2023-01-29T17:20:43;35.40;;;23.00;;